sensor_id;sensor_type;location;lat;lon;timestamp;P1;durP1;ratioP1;P2;durP2;ratioP2
20997;SDS011;10657;51.276;6.390;2024-03-06T00:00:03;14.43;;;8.02;;
20997;SDS011;10657;51.276;6.390;2024-03-06T00:02:31;15.07;;;7.75;;
20997;SDS011;10657;51.276;6.390;2024-03-06T00:04:57;13.55;;;8.07;;
20997;SDS011;10657;51.276;6.390;2024-03-06T00:07:25;11.75;;;6.90;;
20997;SDS011;10657;51.276;6.390;2024-03-06T00:09:55;15.25;;;7.93;;
20997;SDS011;10657;51.276;6.390;2024-03-06T00:12:21;13.50;;;7.30;;
20997;SDS011;10657;51.276;6.390;2024-03-06T00:14:50;14.70;;;8.30;;
20997;SDS011;10657;51.276;6.390;2024-03-06T00:17:17;14.32;;;8.25;;
20997;SDS011;10657;51.276;6.390;2024-03-06T00:19:45;15.55;;;9.10;;
20997;SDS011;10657;51.276;6.390;2024-03-06T00:22:12;14.98;;;8.02;;
20997;SDS011;10657;51.276;6.390;2024-03-06T00:24:39;18.13;;;9.13;;
20997;SDS011;10657;51.276;6.390;2024-03-06T00:27:06;15.40;;;7.53;;
20997;SDS011;10657;51.276;6.390;2024-03-06T00:29:33;15.68;;;7.50;;
20997;SDS011;10657;51.276;6.390;2024-03-06T00:32:02;16.08;;;8.57;;
20997;SDS011;10657;51.276;6.390;2024-03-06T00:34:29;13.35;;;7.35;;
20997;SDS011;10657;51.276;6.390;2024-03-06T00:36:56;12.75;;;7.03;;
20997;SDS011;10657;51.276;6.390;2024-03-06T00:39:23;14.70;;;7.90;;
20997;SDS011;10657;51.276;6.390;2024-03-06T00:41:50;15.95;;;7.43;;
20997;SDS011;10657;51.276;6.390;2024-03-06T00:44:17;14.10;;;6.95;;
20997;SDS011;10657;51.276;6.390;2024-03-06T00:46:44;16.52;;;8.48;;
20997;SDS011;10657;51.276;6.390;2024-03-06T00:49:10;13.20;;;7.05;;
20997;SDS011;10657;51.276;6.390;2024-03-06T00:51:37;11.45;;;6.35;;
20997;SDS011;10657;51.276;6.390;2024-03-06T00:54:13;12.30;;;6.35;;
20997;SDS011;10657;51.276;6.390;2024-03-06T00:56:40;12.32;;;7.18;;
20997;SDS011;10657;51.276;6.390;2024-03-06T00:59:07;13.05;;;6.82;;
20997;SDS011;10657;51.276;6.390;2024-03-06T01:01:34;12.70;;;7.85;;
20997;SDS011;10657;51.276;6.390;2024-03-06T01:04:01;12.38;;;7.70;;
20997;SDS011;10657;51.276;6.390;2024-03-06T01:06:28;15.25;;;7.30;;
20997;SDS011;10657;51.276;6.390;2024-03-06T01:08:55;13.05;;;7.03;;
20997;SDS011;10657;51.276;6.390;2024-03-06T01:11:23;15.18;;;8.13;;
20997;SDS011;10657;51.276;6.390;2024-03-06T01:13:49;14.50;;;7.85;;
20997;SDS011;10657;51.276;6.390;2024-03-06T01:16:16;12.95;;;7.03;;
20997;SDS011;10657;51.276;6.390;2024-03-06T01:18:45;12.73;;;6.70;;
20997;SDS011;10657;51.276;6.390;2024-03-06T01:21:12;12.27;;;6.50;;
20997;SDS011;10657;51.276;6.390;2024-03-06T01:23:38;12.18;;;6.78;;
20997;SDS011;10657;51.276;6.390;2024-03-06T01:26:05;13.18;;;6.20;;
20997;SDS011;10657;51.276;6.390;2024-03-06T01:28:32;13.70;;;6.65;;
20997;SDS011;10657;51.276;6.390;2024-03-06T01:30:59;13.07;;;6.82;;
20997;SDS011;10657;51.276;6.390;2024-03-06T01:33:26;14.18;;;7.05;;
20997;SDS011;10657;51.276;6.390;2024-03-06T01:35:52;12.48;;;6.90;;
20997;SDS011;10657;51.276;6.390;2024-03-06T01:38:19;14.80;;;7.25;;
20997;SDS011;10657;51.276;6.390;2024-03-06T01:40:46;15.07;;;7.35;;
20997;SDS011;10657;51.276;6.390;2024-03-06T01:43:19;13.43;;;7.10;;
20997;SDS011;10657;51.276;6.390;2024-03-06T01:45:48;15.48;;;7.85;;
20997;SDS011;10657;51.276;6.390;2024-03-06T01:48:21;14.57;;;6.82;;
20997;SDS011;10657;51.276;6.390;2024-03-06T01:50:52;14.85;;;6.75;;
20997;SDS011;10657;51.276;6.390;2024-03-06T01:53:21;14.45;;;7.32;;
20997;SDS011;10657;51.276;6.390;2024-03-06T01:55:52;14.93;;;7.15;;
20997;SDS011;10657;51.276;6.390;2024-03-06T01:58:19;15.18;;;7.95;;
20997;SDS011;10657;51.276;6.390;2024-03-06T02:00:48;14.18;;;6.85;;
20997;SDS011;10657;51.276;6.390;2024-03-06T02:03:17;17.15;;;9.70;;
20997;SDS011;10657;51.276;6.390;2024-03-06T02:05:45;14.32;;;7.40;;
20997;SDS011;10657;51.276;6.390;2024-03-06T02:08:14;19.20;;;10.88;;
20997;SDS011;10657;51.276;6.390;2024-03-06T02:10:42;11.70;;;7.05;;
20997;SDS011;10657;51.276;6.390;2024-03-06T02:13:11;17.33;;;11.18;;
20997;SDS011;10657;51.276;6.390;2024-03-06T02:15:39;11.95;;;6.82;;
20997;SDS011;10657;51.276;6.390;2024-03-06T02:18:09;12.88;;;7.68;;
20997;SDS011;10657;51.276;6.390;2024-03-06T02:20:39;11.75;;;6.68;;
20997;SDS011;10657;51.276;6.390;2024-03-06T02:23:06;12.93;;;7.90;;
20997;SDS011;10657;51.276;6.390;2024-03-06T02:25:34;12.40;;;6.85;;
20997;SDS011;10657;51.276;6.390;2024-03-06T02:28:00;13.52;;;6.32;;
20997;SDS011;10657;51.276;6.390;2024-03-06T02:30:27;12.18;;;6.35;;
20997;SDS011;10657;51.276;6.390;2024-03-06T02:32:56;10.77;;;6.30;;
20997;SDS011;10657;51.276;6.390;2024-03-06T02:35:23;10.43;;;5.63;;
20997;SDS011;10657;51.276;6.390;2024-03-06T02:37:50;9.77;;;5.32;;
20997;SDS011;10657;51.276;6.390;2024-03-06T02:40:17;11.30;;;6.45;;
20997;SDS011;10657;51.276;6.390;2024-03-06T02:42:44;11.55;;;6.07;;
20997;SDS011;10657;51.276;6.390;2024-03-06T02:45:10;10.98;;;6.30;;
20997;SDS011;10657;51.276;6.390;2024-03-06T02:47:37;10.75;;;6.30;;
20997;SDS011;10657;51.276;6.390;2024-03-06T02:50:04;11.68;;;6.68;;
20997;SDS011;10657;51.276;6.390;2024-03-06T02:52:31;12.25;;;5.97;;
20997;SDS011;10657;51.276;6.390;2024-03-06T02:54:58;11.85;;;6.00;;
20997;SDS011;10657;51.276;6.390;2024-03-06T02:57:26;11.07;;;5.85;;
20997;SDS011;10657;51.276;6.390;2024-03-06T02:59:57;11.68;;;6.18;;
20997;SDS011;10657;51.276;6.390;2024-03-06T03:02:24;13.90;;;6.07;;
20997;SDS011;10657;51.276;6.390;2024-03-06T03:04:51;11.43;;;6.70;;
20997;SDS011;10657;51.276;6.390;2024-03-06T03:07:19;10.13;;;5.88;;
20997;SDS011;10657;51.276;6.390;2024-03-06T03:09:45;12.75;;;7.05;;
20997;SDS011;10657;51.276;6.390;2024-03-06T03:12:13;12.02;;;6.68;;
20997;SDS011;10657;51.276;6.390;2024-03-06T03:14:40;12.57;;;7.97;;
20997;SDS011;10657;51.276;6.390;2024-03-06T03:17:07;12.82;;;6.75;;
20997;SDS011;10657;51.276;6.390;2024-03-06T03:19:34;17.25;;;9.32;;
20997;SDS011;10657;51.276;6.390;2024-03-06T03:22:01;13.20;;;7.15;;
20997;SDS011;10657;51.276;6.390;2024-03-06T03:24:30;16.13;;;7.60;;
20997;SDS011;10657;51.276;6.390;2024-03-06T03:27:02;14.90;;;7.57;;
20997;SDS011;10657;51.276;6.390;2024-03-06T03:29:29;14.57;;;7.30;;
20997;SDS011;10657;51.276;6.390;2024-03-06T03:31:56;13.50;;;8.02;;
20997;SDS011;10657;51.276;6.390;2024-03-06T03:34:23;12.85;;;7.30;;
20997;SDS011;10657;51.276;6.390;2024-03-06T03:36:50;14.32;;;7.78;;
20997;SDS011;10657;51.276;6.390;2024-03-06T03:39:19;15.85;;;8.27;;
20997;SDS011;10657;51.276;6.390;2024-03-06T03:41:48;13.35;;;7.65;;
20997;SDS011;10657;51.276;6.390;2024-03-06T03:44:16;14.40;;;7.22;;
20997;SDS011;10657;51.276;6.390;2024-03-06T03:46:45;13.77;;;7.35;;
20997;SDS011;10657;51.276;6.390;2024-03-06T03:49:12;13.20;;;6.53;;
20997;SDS011;10657;51.276;6.390;2024-03-06T03:51:39;12.63;;;7.13;;
20997;SDS011;10657;51.276;6.390;2024-03-06T03:54:06;13.20;;;7.30;;
20997;SDS011;10657;51.276;6.390;2024-03-06T03:56:33;15.65;;;7.72;;
20997;SDS011;10657;51.276;6.390;2024-03-06T03:59:00;13.23;;;6.97;;
20997;SDS011;10657;51.276;6.390;2024-03-06T04:01:27;14.45;;;7.70;;
20997;SDS011;10657;51.276;6.390;2024-03-06T04:03:54;11.95;;;6.88;;
20997;SDS011;10657;51.276;6.390;2024-03-06T04:06:21;12.60;;;7.13;;
20997;SDS011;10657;51.276;6.390;2024-03-06T04:08:48;11.02;;;6.90;;
20997;SDS011;10657;51.276;6.390;2024-03-06T04:11:15;10.75;;;6.93;;
20997;SDS011;10657;51.276;6.390;2024-03-06T04:13:42;11.90;;;6.55;;
20997;SDS011;10657;51.276;6.390;2024-03-06T04:16:09;11.20;;;6.53;;
20997;SDS011;10657;51.276;6.390;2024-03-06T04:18:36;9.48;;;5.13;;
20997;SDS011;10657;51.276;6.390;2024-03-06T04:21:05;10.32;;;6.00;;
20997;SDS011;10657;51.276;6.390;2024-03-06T04:23:32;10.57;;;6.72;;
20997;SDS011;10657;51.276;6.390;2024-03-06T04:25:59;11.48;;;7.15;;
20997;SDS011;10657;51.276;6.390;2024-03-06T04:28:27;12.13;;;6.80;;
20997;SDS011;10657;51.276;6.390;2024-03-06T04:30:54;11.15;;;6.30;;
20997;SDS011;10657;51.276;6.390;2024-03-06T04:33:21;10.70;;;6.22;;
20997;SDS011;10657;51.276;6.390;2024-03-06T04:35:48;12.80;;;7.13;;
20997;SDS011;10657;51.276;6.390;2024-03-06T04:38:15;11.73;;;7.00;;
20997;SDS011;10657;51.276;6.390;2024-03-06T04:40:42;11.38;;;6.53;;
20997;SDS011;10657;51.276;6.390;2024-03-06T04:43:09;13.13;;;7.72;;
20997;SDS011;10657;51.276;6.390;2024-03-06T04:45:36;10.73;;;6.45;;
20997;SDS011;10657;51.276;6.390;2024-03-06T04:48:03;12.15;;;6.93;;
20997;SDS011;10657;51.276;6.390;2024-03-06T04:50:30;12.23;;;6.75;;
20997;SDS011;10657;51.276;6.390;2024-03-06T04:52:56;11.35;;;6.90;;
20997;SDS011;10657;51.276;6.390;2024-03-06T04:55:23;9.98;;;5.95;;
20997;SDS011;10657;51.276;6.390;2024-03-06T04:57:51;10.73;;;6.55;;
20997;SDS011;10657;51.276;6.390;2024-03-06T05:00:19;10.90;;;6.68;;
20997;SDS011;10657;51.276;6.390;2024-03-06T05:02:47;10.48;;;5.80;;
20997;SDS011;10657;51.276;6.390;2024-03-06T05:05:32;12.10;;;6.53;;
20997;SDS011;10657;51.276;6.390;2024-03-06T05:08:17;9.43;;;5.68;;
20997;SDS011;10657;51.276;6.390;2024-03-06T05:11:01;11.07;;;6.13;;
20997;SDS011;10657;51.276;6.390;2024-03-06T05:13:46;11.63;;;6.57;;
20997;SDS011;10657;51.276;6.390;2024-03-06T05:16:30;10.93;;;6.18;;
20997;SDS011;10657;51.276;6.390;2024-03-06T05:19:14;10.45;;;6.05;;
20997;SDS011;10657;51.276;6.390;2024-03-06T05:21:58;8.75;;;4.53;;
20997;SDS011;10657;51.276;6.390;2024-03-06T05:24:43;9.00;;;4.90;;
20997;SDS011;10657;51.276;6.390;2024-03-06T05:27:28;8.95;;;4.90;;
20997;SDS011;10657;51.276;6.390;2024-03-06T05:30:12;11.27;;;6.32;;
20997;SDS011;10657;51.276;6.390;2024-03-06T05:32:56;8.95;;;5.28;;
20997;SDS011;10657;51.276;6.390;2024-03-06T05:35:40;10.15;;;5.55;;
20997;SDS011;10657;51.276;6.390;2024-03-06T05:38:29;8.90;;;4.82;;
20997;SDS011;10657;51.276;6.390;2024-03-06T05:41:13;8.38;;;3.97;;
20997;SDS011;10657;51.276;6.390;2024-03-06T05:43:59;13.48;;;8.90;;
20997;SDS011;10657;51.276;6.390;2024-03-06T05:46:43;9.90;;;5.65;;
20997;SDS011;10657;51.276;6.390;2024-03-06T05:49:27;11.38;;;6.75;;
20997;SDS011;10657;51.276;6.390;2024-03-06T05:52:12;10.25;;;5.68;;
20997;SDS011;10657;51.276;6.390;2024-03-06T05:54:56;17.23;;;5.85;;
20997;SDS011;10657;51.276;6.390;2024-03-06T05:57:41;8.88;;;5.40;;
20997;SDS011;10657;51.276;6.390;2024-03-06T06:00:29;9.27;;;5.32;;
20997;SDS011;10657;51.276;6.390;2024-03-06T06:02:55;15.07;;;8.65;;
20997;SDS011;10657;51.276;6.390;2024-03-06T06:05:22;9.82;;;5.75;;
20997;SDS011;10657;51.276;6.390;2024-03-06T06:07:50;12.60;;;9.02;;
20997;SDS011;10657;51.276;6.390;2024-03-06T06:10:17;10.68;;;7.10;;
20997;SDS011;10657;51.276;6.390;2024-03-06T06:12:47;12.73;;;7.57;;
20997;SDS011;10657;51.276;6.390;2024-03-06T06:15:15;17.67;;;12.55;;
20997;SDS011;10657;51.276;6.390;2024-03-06T06:17:42;10.20;;;6.25;;
20997;SDS011;10657;51.276;6.390;2024-03-06T06:20:13;11.50;;;5.57;;
20997;SDS011;10657;51.276;6.390;2024-03-06T06:22:43;13.32;;;7.78;;
20997;SDS011;10657;51.276;6.390;2024-03-06T06:25:10;12.68;;;7.88;;
20997;SDS011;10657;51.276;6.390;2024-03-06T06:27:37;10.80;;;5.70;;
20997;SDS011;10657;51.276;6.390;2024-03-06T06:30:05;11.27;;;6.03;;
20997;SDS011;10657;51.276;6.390;2024-03-06T06:32:33;10.73;;;5.50;;
20997;SDS011;10657;51.276;6.390;2024-03-06T06:35:04;15.38;;;9.88;;
20997;SDS011;10657;51.276;6.390;2024-03-06T06:37:31;17.02;;;10.13;;
20997;SDS011;10657;51.276;6.390;2024-03-06T06:39:58;15.20;;;9.77;;
20997;SDS011;10657;51.276;6.390;2024-03-06T06:42:25;11.13;;;6.65;;
20997;SDS011;10657;51.276;6.390;2024-03-06T06:44:52;10.52;;;6.57;;
20997;SDS011;10657;51.276;6.390;2024-03-06T06:47:19;9.02;;;5.63;;
20997;SDS011;10657;51.276;6.390;2024-03-06T06:49:46;10.02;;;5.75;;
20997;SDS011;10657;51.276;6.390;2024-03-06T06:52:15;10.05;;;5.45;;
20997;SDS011;10657;51.276;6.390;2024-03-06T06:54:45;11.27;;;6.57;;
20997;SDS011;10657;51.276;6.390;2024-03-06T06:57:11;11.30;;;6.90;;
20997;SDS011;10657;51.276;6.390;2024-03-06T06:59:38;10.73;;;5.82;;
20997;SDS011;10657;51.276;6.390;2024-03-06T07:02:05;9.05;;;5.40;;
20997;SDS011;10657;51.276;6.390;2024-03-06T07:04:32;7.28;;;4.03;;
20997;SDS011;10657;51.276;6.390;2024-03-06T07:07:00;8.63;;;4.15;;
20997;SDS011;10657;51.276;6.390;2024-03-06T07:09:27;9.35;;;5.43;;
20997;SDS011;10657;51.276;6.390;2024-03-06T07:11:57;8.38;;;5.18;;
20997;SDS011;10657;51.276;6.390;2024-03-06T07:14:24;9.93;;;5.70;;
20997;SDS011;10657;51.276;6.390;2024-03-06T07:16:51;10.38;;;5.18;;
20997;SDS011;10657;51.276;6.390;2024-03-06T07:19:18;7.80;;;4.13;;
20997;SDS011;10657;51.276;6.390;2024-03-06T07:21:44;11.90;;;6.25;;
20997;SDS011;10657;51.276;6.390;2024-03-06T07:24:11;9.98;;;5.63;;
20997;SDS011;10657;51.276;6.390;2024-03-06T07:26:43;11.02;;;5.88;;
20997;SDS011;10657;51.276;6.390;2024-03-06T07:29:10;12.82;;;7.30;;
20997;SDS011;10657;51.276;6.390;2024-03-06T07:31:41;13.60;;;7.03;;
20997;SDS011;10657;51.276;6.390;2024-03-06T07:34:09;13.02;;;6.05;;
20997;SDS011;10657;51.276;6.390;2024-03-06T07:36:38;10.20;;;5.32;;
20997;SDS011;10657;51.276;6.390;2024-03-06T07:39:07;12.60;;;6.88;;
20997;SDS011;10657;51.276;6.390;2024-03-06T07:41:34;10.75;;;6.13;;
20997;SDS011;10657;51.276;6.390;2024-03-06T07:44:02;11.77;;;6.13;;
20997;SDS011;10657;51.276;6.390;2024-03-06T07:46:29;15.85;;;6.72;;
20997;SDS011;10657;51.276;6.390;2024-03-06T07:48:56;11.32;;;5.65;;
20997;SDS011;10657;51.276;6.390;2024-03-06T07:51:23;14.57;;;6.72;;
20997;SDS011;10657;51.276;6.390;2024-03-06T07:53:50;11.85;;;7.13;;
20997;SDS011;10657;51.276;6.390;2024-03-06T07:56:17;14.63;;;6.38;;
20997;SDS011;10657;51.276;6.390;2024-03-06T07:58:44;13.18;;;6.80;;
20997;SDS011;10657;51.276;6.390;2024-03-06T08:01:11;12.93;;;6.70;;
20997;SDS011;10657;51.276;6.390;2024-03-06T08:03:39;11.40;;;6.47;;
20997;SDS011;10657;51.276;6.390;2024-03-06T08:06:06;13.00;;;6.80;;
20997;SDS011;10657;51.276;6.390;2024-03-06T08:08:35;11.70;;;5.93;;
20997;SDS011;10657;51.276;6.390;2024-03-06T08:11:02;15.45;;;9.23;;
20997;SDS011;10657;51.276;6.390;2024-03-06T08:13:30;12.70;;;6.45;;
20997;SDS011;10657;51.276;6.390;2024-03-06T08:15:56;10.05;;;4.43;;
20997;SDS011;10657;51.276;6.390;2024-03-06T08:18:25;11.45;;;5.00;;
20997;SDS011;10657;51.276;6.390;2024-03-06T08:20:53;9.77;;;5.68;;
20997;SDS011;10657;51.276;6.390;2024-03-06T08:23:20;7.28;;;3.67;;
20997;SDS011;10657;51.276;6.390;2024-03-06T08:25:47;10.85;;;5.43;;
20997;SDS011;10657;51.276;6.390;2024-03-06T08:28:14;8.32;;;3.95;;
20997;SDS011;10657;51.276;6.390;2024-03-06T08:30:40;10.52;;;5.05;;
20997;SDS011;10657;51.276;6.390;2024-03-06T08:33:07;9.18;;;5.20;;
20997;SDS011;10657;51.276;6.390;2024-03-06T08:35:35;8.80;;;4.43;;
20997;SDS011;10657;51.276;6.390;2024-03-06T08:38:02;11.70;;;4.10;;
20997;SDS011;10657;51.276;6.390;2024-03-06T08:40:30;9.63;;;4.88;;
20997;SDS011;10657;51.276;6.390;2024-03-06T08:42:57;8.25;;;4.20;;
20997;SDS011;10657;51.276;6.390;2024-03-06T08:45:24;7.63;;;4.00;;
20997;SDS011;10657;51.276;6.390;2024-03-06T08:47:51;8.00;;;3.45;;
20997;SDS011;10657;51.276;6.390;2024-03-06T08:50:20;7.53;;;3.55;;
20997;SDS011;10657;51.276;6.390;2024-03-06T08:52:48;10.73;;;4.88;;
20997;SDS011;10657;51.276;6.390;2024-03-06T08:55:15;7.22;;;3.80;;
20997;SDS011;10657;51.276;6.390;2024-03-06T08:57:42;10.77;;;4.18;;
20997;SDS011;10657;51.276;6.390;2024-03-06T09:00:12;11.10;;;4.05;;
20997;SDS011;10657;51.276;6.390;2024-03-06T09:02:40;8.93;;;4.30;;
20997;SDS011;10657;51.276;6.390;2024-03-06T09:05:09;8.32;;;4.25;;
20997;SDS011;10657;51.276;6.390;2024-03-06T09:07:40;9.07;;;4.45;;
20997;SDS011;10657;51.276;6.390;2024-03-06T09:10:10;6.65;;;3.08;;
20997;SDS011;10657;51.276;6.390;2024-03-06T09:12:37;9.48;;;3.33;;
20997;SDS011;10657;51.276;6.390;2024-03-06T09:15:04;9.68;;;4.65;;
20997;SDS011;10657;51.276;6.390;2024-03-06T09:17:33;7.70;;;3.03;;
20997;SDS011;10657;51.276;6.390;2024-03-06T09:20:00;9.27;;;4.20;;
20997;SDS011;10657;51.276;6.390;2024-03-06T09:22:37;9.88;;;5.22;;
20997;SDS011;10657;51.276;6.390;2024-03-06T09:25:05;10.23;;;5.22;;
20997;SDS011;10657;51.276;6.390;2024-03-06T09:27:32;7.95;;;3.92;;
20997;SDS011;10657;51.276;6.390;2024-03-06T09:30:03;6.60;;;2.90;;
20997;SDS011;10657;51.276;6.390;2024-03-06T09:32:30;11.15;;;3.67;;
20997;SDS011;10657;51.276;6.390;2024-03-06T09:34:58;7.93;;;3.30;;
20997;SDS011;10657;51.276;6.390;2024-03-06T09:37:26;8.60;;;4.10;;
20997;SDS011;10657;51.276;6.390;2024-03-06T09:39:54;10.32;;;5.57;;
20997;SDS011;10657;51.276;6.390;2024-03-06T09:42:21;6.05;;;2.92;;
20997;SDS011;10657;51.276;6.390;2024-03-06T09:44:48;9.63;;;4.57;;
20997;SDS011;10657;51.276;6.390;2024-03-06T09:47:15;8.20;;;3.38;;
20997;SDS011;10657;51.276;6.390;2024-03-06T09:49:49;10.15;;;4.90;;
20997;SDS011;10657;51.276;6.390;2024-03-06T09:52:20;10.02;;;4.60;;
20997;SDS011;10657;51.276;6.390;2024-03-06T09:54:54;10.90;;;6.65;;
20997;SDS011;10657;51.276;6.390;2024-03-06T09:57:22;8.30;;;3.67;;
20997;SDS011;10657;51.276;6.390;2024-03-06T09:59:48;5.72;;;2.40;;
20997;SDS011;10657;51.276;6.390;2024-03-06T10:02:30;6.63;;;2.70;;
20997;SDS011;10657;51.276;6.390;2024-03-06T10:05:04;12.65;;;6.53;;
20997;SDS011;10657;51.276;6.390;2024-03-06T10:07:31;12.85;;;6.72;;
20997;SDS011;10657;51.276;6.390;2024-03-06T10:09:58;13.15;;;7.53;;
20997;SDS011;10657;51.276;6.390;2024-03-06T10:12:25;9.23;;;4.00;;
20997;SDS011;10657;51.276;6.390;2024-03-06T10:14:55;12.43;;;6.55;;
20997;SDS011;10657;51.276;6.390;2024-03-06T10:17:23;8.70;;;4.90;;
20997;SDS011;10657;51.276;6.390;2024-03-06T10:19:50;15.20;;;9.23;;
20997;SDS011;10657;51.276;6.390;2024-03-06T10:22:20;7.72;;;3.88;;
20997;SDS011;10657;51.276;6.390;2024-03-06T10:24:50;6.78;;;2.95;;
20997;SDS011;10657;51.276;6.390;2024-03-06T10:27:22;8.35;;;2.72;;
20997;SDS011;10657;51.276;6.390;2024-03-06T10:30:10;8.38;;;2.38;;
20997;SDS011;10657;51.276;6.390;2024-03-06T10:32:39;11.35;;;3.15;;
20997;SDS011;10657;51.276;6.390;2024-03-06T10:35:06;6.90;;;3.50;;
20997;SDS011;10657;51.276;6.390;2024-03-06T10:37:33;8.30;;;4.40;;
20997;SDS011;10657;51.276;6.390;2024-03-06T10:40:01;9.65;;;4.57;;
20997;SDS011;10657;51.276;6.390;2024-03-06T10:42:34;8.93;;;4.55;;
20997;SDS011;10657;51.276;6.390;2024-03-06T10:45:02;9.02;;;3.28;;
20997;SDS011;10657;51.276;6.390;2024-03-06T10:47:31;7.03;;;2.53;;
20997;SDS011;10657;51.276;6.390;2024-03-06T10:49:59;6.93;;;3.05;;
20997;SDS011;10657;51.276;6.390;2024-03-06T10:52:30;10.88;;;3.47;;
20997;SDS011;10657;51.276;6.390;2024-03-06T10:54:59;10.48;;;4.85;;
20997;SDS011;10657;51.276;6.390;2024-03-06T10:57:26;5.95;;;2.00;;
20997;SDS011;10657;51.276;6.390;2024-03-06T11:00:00;10.35;;;5.45;;
20997;SDS011;10657;51.276;6.390;2024-03-06T11:02:31;10.57;;;4.05;;
20997;SDS011;10657;51.276;6.390;2024-03-06T11:04:59;6.05;;;2.00;;
20997;SDS011;10657;51.276;6.390;2024-03-06T11:07:34;7.63;;;2.10;;
20997;SDS011;10657;51.276;6.390;2024-03-06T11:10:01;9.02;;;2.88;;
20997;SDS011;10657;51.276;6.390;2024-03-06T11:12:32;5.18;;;2.17;;
20997;SDS011;10657;51.276;6.390;2024-03-06T11:15:03;4.85;;;2.10;;
20997;SDS011;10657;51.276;6.390;2024-03-06T11:17:35;9.80;;;3.60;;
20997;SDS011;10657;51.276;6.390;2024-03-06T11:28:24;8.10;;;3.67;;
20997;SDS011;10657;51.276;6.390;2024-03-06T11:38:55;9.73;;;2.88;;
20997;SDS011;10657;51.276;6.390;2024-03-06T11:44:05;4.63;;;2.15;;
20997;SDS011;10657;51.276;6.390;2024-03-06T11:46:48;7.32;;;2.72;;
20997;SDS011;10657;51.276;6.390;2024-03-06T11:49:50;6.15;;;2.47;;
20997;SDS011;10657;51.276;6.390;2024-03-06T11:52:20;7.20;;;3.70;;
20997;SDS011;10657;51.276;6.390;2024-03-06T11:54:47;9.82;;;5.72;;
20997;SDS011;10657;51.276;6.390;2024-03-06T11:57:13;6.97;;;3.35;;
20997;SDS011;10657;51.276;6.390;2024-03-06T11:59:42;6.32;;;2.72;;
20997;SDS011;10657;51.276;6.390;2024-03-06T12:02:15;5.55;;;2.80;;
20997;SDS011;10657;51.276;6.390;2024-03-06T12:04:44;5.20;;;1.73;;
20997;SDS011;10657;51.276;6.390;2024-03-06T12:07:11;5.68;;;2.03;;
20997;SDS011;10657;51.276;6.390;2024-03-06T12:09:39;4.82;;;1.77;;
20997;SDS011;10657;51.276;6.390;2024-03-06T12:12:09;5.38;;;2.38;;
20997;SDS011;10657;51.276;6.390;2024-03-06T12:14:38;7.07;;;2.35;;
20997;SDS011;10657;51.276;6.390;2024-03-06T12:17:10;5.53;;;1.98;;
20997;SDS011;10657;51.276;6.390;2024-03-06T12:19:44;9.35;;;3.90;;
20997;SDS011;10657;51.276;6.390;2024-03-06T12:22:14;6.88;;;3.50;;
20997;SDS011;10657;51.276;6.390;2024-03-06T12:24:41;7.07;;;3.25;;
20997;SDS011;10657;51.276;6.390;2024-03-06T12:27:08;8.48;;;4.20;;
20997;SDS011;10657;51.276;6.390;2024-03-06T12:29:38;10.45;;;5.28;;
20997;SDS011;10657;51.276;6.390;2024-03-06T12:32:16;9.50;;;4.63;;
20997;SDS011;10657;51.276;6.390;2024-03-06T12:34:55;5.28;;;1.80;;
20997;SDS011;10657;51.276;6.390;2024-03-06T12:37:28;15.43;;;8.48;;
20997;SDS011;10657;51.276;6.390;2024-03-06T12:40:03;10.05;;;3.70;;
20997;SDS011;10657;51.276;6.390;2024-03-06T12:42:31;5.85;;;2.00;;
20997;SDS011;10657;51.276;6.390;2024-03-06T12:44:57;7.05;;;1.90;;
20997;SDS011;10657;51.276;6.390;2024-03-06T12:47:24;5.40;;;1.65;;
20997;SDS011;10657;51.276;6.390;2024-03-06T12:49:51;7.75;;;1.70;;
20997;SDS011;10657;51.276;6.390;2024-03-06T12:52:18;7.57;;;1.80;;
20997;SDS011;10657;51.276;6.390;2024-03-06T12:54:45;8.27;;;2.90;;
20997;SDS011;10657;51.276;6.390;2024-03-06T12:57:11;4.95;;;1.67;;
20997;SDS011;10657;51.276;6.390;2024-03-06T12:59:39;5.07;;;2.38;;
20997;SDS011;10657;51.276;6.390;2024-03-06T13:02:08;6.68;;;1.60;;
20997;SDS011;10657;51.276;6.390;2024-03-06T13:04:35;10.05;;;2.95;;
20997;SDS011;10657;51.276;6.390;2024-03-06T13:07:01;8.23;;;4.00;;
20997;SDS011;10657;51.276;6.390;2024-03-06T13:09:28;9.10;;;4.15;;
20997;SDS011;10657;51.276;6.390;2024-03-06T13:11:55;8.95;;;4.45;;
20997;SDS011;10657;51.276;6.390;2024-03-06T13:14:22;4.00;;;1.70;;
20997;SDS011;10657;51.276;6.390;2024-03-06T13:16:49;6.32;;;2.65;;
20997;SDS011;10657;51.276;6.390;2024-03-06T13:19:15;4.35;;;1.60;;
20997;SDS011;10657;51.276;6.390;2024-03-06T13:21:44;6.63;;;3.10;;
20997;SDS011;10657;51.276;6.390;2024-03-06T13:24:13;5.43;;;2.03;;
20997;SDS011;10657;51.276;6.390;2024-03-06T13:26:40;7.07;;;3.42;;
20997;SDS011;10657;51.276;6.390;2024-03-06T13:29:07;6.00;;;1.70;;
20997;SDS011;10657;51.276;6.390;2024-03-06T13:31:34;10.55;;;5.30;;
20997;SDS011;10657;51.276;6.390;2024-03-06T13:34:02;4.80;;;1.70;;
20997;SDS011;10657;51.276;6.390;2024-03-06T13:36:29;5.72;;;1.70;;
20997;SDS011;10657;51.276;6.390;2024-03-06T13:38:56;4.78;;;2.10;;
20997;SDS011;10657;51.276;6.390;2024-03-06T13:41:23;6.35;;;1.88;;
20997;SDS011;10657;51.276;6.390;2024-03-06T13:43:52;3.88;;;1.52;;
20997;SDS011;10657;51.276;6.390;2024-03-06T13:46:19;7.80;;;3.10;;
20997;SDS011;10657;51.276;6.390;2024-03-06T13:48:46;5.88;;;1.70;;
20997;SDS011;10657;51.276;6.390;2024-03-06T13:51:13;4.85;;;1.48;;
20997;SDS011;10657;51.276;6.390;2024-03-06T13:53:39;9.80;;;4.65;;
20997;SDS011;10657;51.276;6.390;2024-03-06T13:56:06;5.70;;;2.03;;
20997;SDS011;10657;51.276;6.390;2024-03-06T13:58:34;3.97;;;1.50;;
20997;SDS011;10657;51.276;6.390;2024-03-06T14:01:01;3.70;;;1.55;;
20997;SDS011;10657;51.276;6.390;2024-03-06T14:03:28;10.30;;;5.82;;
20997;SDS011;10657;51.276;6.390;2024-03-06T14:05:55;5.00;;;2.00;;
20997;SDS011;10657;51.276;6.390;2024-03-06T14:08:24;14.25;;;8.95;;
20997;SDS011;10657;51.276;6.390;2024-03-06T14:10:51;3.97;;;1.48;;
20997;SDS011;10657;51.276;6.390;2024-03-06T14:13:18;9.02;;;4.35;;
20997;SDS011;10657;51.276;6.390;2024-03-06T14:15:45;4.30;;;1.60;;
20997;SDS011;10657;51.276;6.390;2024-03-06T14:18:13;3.72;;;1.52;;
20997;SDS011;10657;51.276;6.390;2024-03-06T14:20:40;19.02;;;3.53;;
20997;SDS011;10657;51.276;6.390;2024-03-06T14:23:07;15.38;;;5.50;;
20997;SDS011;10657;51.276;6.390;2024-03-06T14:25:34;4.00;;;1.65;;
20997;SDS011;10657;51.276;6.390;2024-03-06T14:28:03;11.32;;;5.30;;
20997;SDS011;10657;51.276;6.390;2024-03-06T14:30:30;17.15;;;10.15;;
20997;SDS011;10657;51.276;6.390;2024-03-06T14:32:57;9.82;;;5.85;;
20997;SDS011;10657;51.276;6.390;2024-03-06T14:35:24;10.35;;;5.57;;
20997;SDS011;10657;51.276;6.390;2024-03-06T14:37:51;11.55;;;5.55;;
20997;SDS011;10657;51.276;6.390;2024-03-06T14:40:18;4.72;;;2.17;;
20997;SDS011;10657;51.276;6.390;2024-03-06T14:42:44;7.20;;;3.30;;
20997;SDS011;10657;51.276;6.390;2024-03-06T14:45:11;4.43;;;1.55;;
20997;SDS011;10657;51.276;6.390;2024-03-06T14:47:38;4.22;;;1.70;;
20997;SDS011;10657;51.276;6.390;2024-03-06T14:50:05;9.98;;;4.90;;
20997;SDS011;10657;51.276;6.390;2024-03-06T14:52:32;10.82;;;5.63;;
20997;SDS011;10657;51.276;6.390;2024-03-06T14:55:00;4.43;;;1.48;;
20997;SDS011;10657;51.276;6.390;2024-03-06T14:57:29;5.53;;;1.65;;
20997;SDS011;10657;51.276;6.390;2024-03-06T14:59:56;10.23;;;5.15;;
20997;SDS011;10657;51.276;6.390;2024-03-06T15:02:24;3.53;;;1.42;;
20997;SDS011;10657;51.276;6.390;2024-03-06T15:04:51;8.93;;;4.60;;
20997;SDS011;10657;51.276;6.390;2024-03-06T15:07:18;8.80;;;4.20;;
20997;SDS011;10657;51.276;6.390;2024-03-06T15:09:45;11.75;;;4.55;;